createdAt,value
2023-05-20T00:00:55.518Z,4.35
2023-05-20T00:03:53.371Z,3.95
2023-05-20T00:06:51.810Z,3.85
2023-05-20T00:09:49.528Z,4.32
2023-05-20T00:12:47.316Z,4.90
2023-05-20T00:15:45.063Z,4.22
2023-05-20T00:18:42.948Z,4.10
2023-05-20T00:21:40.813Z,4.38
2023-05-20T00:24:39.371Z,4.43
2023-05-20T00:27:37.116Z,4.22
2023-05-20T00:30:34.979Z,4.50
2023-05-20T00:33:32.887Z,5.63
2023-05-20T00:36:31.888Z,5.10
2023-05-20T00:39:31.026Z,4.63
2023-05-20T00:42:30.005Z,4.65
2023-05-20T00:45:28.009Z,4.90
2023-05-20T00:48:25.999Z,4.93
2023-05-20T00:51:24.159Z,4.88
2023-05-20T00:54:23.088Z,5.47
2023-05-20T00:57:21.486Z,5.70
2023-05-20T01:00:19.353Z,5.18
2023-05-20T01:03:17.245Z,4.93
2023-05-20T01:06:15.135Z,4.90
2023-05-20T01:09:14.848Z,4.97
2023-05-20T01:12:19.151Z,4.72
2023-05-20T01:15:17.858Z,5.20
2023-05-20T01:18:19.592Z,4.50
2023-05-20T01:21:19.397Z,4.72
2023-05-20T01:24:17.575Z,4.35
2023-05-20T01:27:15.639Z,4.30
2023-05-20T01:30:15.351Z,4.25
2023-05-20T01:33:15.249Z,4.53
2023-05-20T01:36:13.710Z,3.88
2023-05-20T01:39:11.865Z,3.63
2023-05-20T01:42:11.421Z,3.70
2023-05-20T01:45:09.652Z,3.70
2023-05-20T01:48:07.571Z,3.90
2023-05-20T01:51:05.551Z,4.35
2023-05-20T01:54:03.688Z,4.60
2023-05-20T01:57:02.038Z,4.38
2023-05-20T01:59:59.876Z,4.47
2023-05-20T02:02:57.917Z,4.72
2023-05-20T02:05:55.813Z,4.78
2023-05-20T02:08:53.564Z,4.10
2023-05-20T02:11:51.373Z,4.15
2023-05-20T02:14:50.764Z,4.10
2023-05-20T02:17:48.840Z,3.75
2023-05-20T02:20:47.042Z,3.60
2023-05-20T02:23:44.948Z,3.50
2023-05-20T02:26:42.908Z,3.42
2023-05-20T02:29:40.747Z,3.28
2023-05-20T02:32:38.746Z,3.42
2023-05-20T02:35:36.618Z,3.90
2023-05-20T02:38:34.442Z,3.60
2023-05-20T02:41:32.407Z,3.50
2023-05-20T02:44:30.096Z,3.38
2023-05-20T02:47:28.545Z,3.60
2023-05-20T02:50:26.411Z,3.08
2023-05-20T02:53:24.423Z,3.15
2023-05-20T02:56:22.136Z,3.38
2023-05-20T02:59:19.920Z,3.50
2023-05-20T03:02:17.861Z,3.58
2023-05-20T03:05:15.787Z,3.22
2023-05-20T03:08:14.037Z,2.72
2023-05-20T03:11:12.530Z,3.33
2023-05-20T03:14:10.297Z,3.42
2023-05-20T03:17:09.083Z,3.22
2023-05-20T03:20:07.815Z,3.30
2023-05-20T03:23:07.109Z,3.08
2023-05-20T03:26:04.972Z,3.00
2023-05-20T03:29:02.753Z,3.40
2023-05-20T03:32:00.515Z,3.35
2023-05-20T03:34:58.809Z,3.20
2023-05-20T03:37:56.736Z,3.10
2023-05-20T03:40:54.622Z,3.42
2023-05-20T03:43:52.347Z,3.05
2023-05-20T03:46:50.167Z,3.35
2023-05-20T03:49:47.875Z,3.65
2023-05-20T03:52:45.710Z,3.53
2023-05-20T03:55:44.086Z,3.38
2023-05-20T03:58:43.457Z,3.65
2023-05-20T04:01:41.250Z,3.40
2023-05-20T04:04:39.134Z,3.10
2023-05-20T04:07:37.080Z,3.17
2023-05-20T04:10:34.947Z,3.70
2023-05-20T04:13:32.818Z,3.78
2023-05-20T04:16:31.254Z,3.70
2023-05-20T04:19:29.182Z,3.72
2023-05-20T04:22:27.758Z,3.80
2023-05-20T04:25:26.585Z,3.60
2023-05-20T04:28:24.616Z,3.60
2023-05-20T04:31:27.382Z,3.38
2023-05-20T04:34:27.235Z,4.18
2023-05-20T04:37:25.653Z,3.85
2023-05-20T04:40:23.569Z,4.18
2023-05-20T04:43:21.507Z,5.07
2023-05-20T04:46:21.077Z,4.45
2023-05-20T04:49:18.987Z,4.80
2023-05-20T04:52:16.773Z,4.45
2023-05-20T04:55:16.347Z,4.28
2023-05-20T04:58:16.580Z,5.00
2023-05-20T05:01:14.317Z,4.80
2023-05-20T05:04:12.323Z,4.80
2023-05-20T05:07:10.163Z,4.47
2023-05-20T05:10:08.480Z,4.00
2023-05-20T05:13:06.346Z,5.43
2023-05-20T05:16:04.267Z,5.20
2023-05-20T05:19:02.067Z,6.45
2023-05-20T05:21:59.958Z,4.70
2023-05-20T05:24:59.337Z,4.82
2023-05-20T05:27:57.863Z,5.30
2023-05-20T05:30:57.890Z,4.47
2023-05-20T05:33:55.645Z,4.60
2023-05-20T05:36:53.451Z,4.50
2023-05-20T05:39:51.476Z,5.55
2023-05-20T05:42:49.400Z,5.53
2023-05-20T05:45:47.169Z,5.00
2023-05-20T05:48:49.957Z,5.50
2023-05-20T05:51:47.763Z,4.80
2023-05-20T05:54:45.530Z,6.50
2023-05-20T05:57:43.231Z,6.20
2023-05-20T06:00:41.875Z,5.65
2023-05-20T06:03:39.700Z,4.88
2023-05-20T06:06:38.290Z,5.88
2023-05-20T06:09:36.234Z,5.97
2023-05-20T06:12:34.101Z,5.30
2023-05-20T06:15:32.001Z,5.10
2023-05-20T06:18:30.146Z,5.30
2023-05-20T06:21:27.930Z,5.13
2023-05-20T06:24:26.027Z,5.57
2023-05-20T06:27:23.728Z,6.50
2023-05-20T06:30:21.582Z,5.85
2023-05-20T06:33:20.843Z,6.65
2023-05-20T06:36:18.876Z,6.32
2023-05-20T06:39:16.668Z,7.47
2023-05-20T06:42:14.508Z,6.68
2023-05-20T06:45:12.846Z,7.20
2023-05-20T06:48:11.640Z,7.38
2023-05-20T06:51:09.890Z,7.45
2023-05-20T06:54:07.815Z,7.00
2023-05-20T06:57:06.120Z,7.20
2023-05-20T07:00:06.452Z,7.65
2023-05-20T07:03:04.914Z,7.03
2023-05-20T07:06:03.259Z,7.15
2023-05-20T07:09:01.421Z,7.28
2023-05-20T07:11:59.347Z,7.20
2023-05-20T07:14:57.076Z,7.18
2023-05-20T07:17:54.991Z,6.57
2023-05-20T07:20:53.515Z,7.45
2023-05-20T07:23:51.572Z,6.82
2023-05-20T07:26:49.363Z,6.35
2023-05-20T07:29:47.276Z,7.93
2023-05-20T07:32:45.040Z,7.28
2023-05-20T07:35:42.884Z,7.00
2023-05-20T07:38:49.733Z,6.72
2023-05-20T07:41:54.719Z,7.40
2023-05-20T07:44:53.183Z,7.28
2023-05-20T07:47:51.021Z,6.72
2023-05-20T07:50:48.776Z,7.10
2023-05-20T07:53:47.849Z,6.63
2023-05-20T07:56:47.284Z,7.60
2023-05-20T07:59:45.548Z,7.57
2023-05-20T08:02:43.513Z,7.35
2023-05-20T08:05:42.737Z,7.03
2023-05-20T08:08:41.841Z,6.78
2023-05-20T08:11:39.704Z,7.60
2023-05-20T08:14:39.775Z,6.53
2023-05-20T08:17:39.216Z,6.72
2023-05-20T08:20:37.156Z,5.97
2023-05-20T08:23:38.777Z,6.90
2023-05-20T08:26:37.995Z,7.15
2023-05-20T08:29:35.931Z,7.30
2023-05-20T08:32:33.848Z,7.70
2023-05-20T08:35:31.702Z,7.97
2023-05-20T08:38:29.521Z,8.18
2023-05-20T08:41:27.738Z,8.98
2023-05-20T08:44:27.014Z,8.55
2023-05-20T08:47:24.892Z,9.00
2023-05-20T08:50:22.922Z,8.80
2023-05-20T08:53:23.141Z,8.13
2023-05-20T08:56:23.255Z,8.05
2023-05-20T08:59:21.321Z,7.97
2023-05-20T09:02:19.074Z,7.80
2023-05-20T09:05:17.436Z,7.68
2023-05-20T09:08:15.470Z,8.45
2023-05-20T09:11:14.001Z,9.32
2023-05-20T09:14:11.795Z,8.43
2023-05-20T09:17:11.578Z,10.52
2023-05-20T09:20:11.524Z,10.90
2023-05-20T09:23:10.902Z,9.35
2023-05-20T09:26:08.742Z,9.95
2023-05-20T09:29:06.988Z,11.90
2023-05-20T09:32:07.326Z,9.55
2023-05-20T09:35:07.085Z,9.15
2023-05-20T09:38:08.444Z,8.73
2023-05-20T09:41:16.394Z,8.20
2023-05-20T09:44:16.796Z,9.40
2023-05-20T09:47:15.441Z,8.85
2023-05-20T09:50:13.711Z,8.55
2023-05-20T09:53:12.829Z,8.32
2023-05-20T09:56:10.680Z,10.52
2023-05-20T09:59:09.824Z,14.45
2023-05-20T10:02:08.083Z,8.82
2023-05-20T10:05:10.632Z,10.07
2023-05-20T10:11:49.941Z,10.32
2023-05-20T10:15:01.967Z,10.43
2023-05-20T10:18:25.464Z,9.48
2023-05-20T10:21:25.047Z,10.57
2023-05-20T10:24:32.752Z,9.85
2023-05-20T10:27:30.512Z,14.93
2023-05-20T10:30:28.792Z,10.43
2023-05-20T10:33:28.897Z,25.77
2023-05-20T10:36:29.677Z,23.02
2023-05-20T10:39:30.248Z,19.60
2023-05-20T10:42:31.631Z,12.07
2023-05-20T10:45:30.686Z,19.67
2023-05-20T10:48:32.545Z,12.80
2023-05-20T10:51:32.573Z,13.40
2023-05-20T10:54:36.052Z,10.63
2023-05-20T10:57:35.386Z,10.45
2023-05-20T11:00:37.955Z,10.73
2023-05-20T11:03:36.978Z,10.52
2023-05-20T11:06:34.896Z,9.90
2023-05-20T11:09:32.745Z,10.48
2023-05-20T11:12:31.319Z,9.82
2023-05-20T11:15:31.246Z,22.77
2023-05-20T11:18:31.019Z,28.67
2023-05-20T11:21:29.302Z,13.20
2023-05-20T11:24:29.666Z,11.75
2023-05-20T11:27:28.927Z,10.95
2023-05-20T11:30:27.266Z,13.52
2023-05-20T11:33:27.955Z,10.27
2023-05-20T11:36:27.920Z,9.55
2023-05-20T11:39:30.413Z,9.82
2023-05-20T11:42:29.060Z,8.65
2023-05-20T11:45:28.146Z,11.02
2023-05-20T11:48:26.629Z,10.13
2023-05-20T11:51:26.292Z,10.80
2023-05-20T11:54:25.210Z,11.73
2023-05-20T11:57:23.931Z,9.55
2023-05-20T12:00:21.795Z,9.50
2023-05-20T12:03:19.946Z,9.15
2023-05-20T12:06:18.986Z,8.65
2023-05-20T12:09:17.519Z,8.90
2023-05-20T12:12:15.329Z,9.85
2023-05-20T12:15:13.247Z,9.02
2023-05-20T12:18:12.273Z,9.52
2023-05-20T12:21:10.298Z,9.80
2023-05-20T12:24:09.309Z,9.50
2023-05-20T12:27:08.295Z,9.88
2023-05-20T12:30:08.180Z,9.30
2023-05-20T12:33:06.933Z,10.40
2023-05-20T12:36:05.036Z,9.77
2023-05-20T12:39:02.782Z,9.88
2023-05-20T12:42:00.621Z,8.60
2023-05-20T12:44:59.410Z,10.23
2023-05-20T12:47:58.422Z,9.55
2023-05-20T12:50:56.217Z,8.70
2023-05-20T12:53:54.615Z,9.23
2023-05-20T12:56:52.308Z,9.05
2023-05-20T12:59:50.272Z,12.02
2023-05-20T13:02:48.659Z,13.50
2023-05-20T13:05:46.961Z,10.95
2023-05-20T13:08:45.948Z,11.52
2023-05-20T13:11:43.808Z,12.82
2023-05-20T13:14:42.042Z,14.55
2023-05-20T13:17:40.345Z,14.63
2023-05-20T13:20:38.235Z,11.57
2023-05-20T13:23:37.513Z,16.15
2023-05-20T13:26:35.178Z,16.13
2023-05-20T13:29:33.045Z,13.30
2023-05-20T13:32:30.960Z,15.02
2023-05-20T13:35:28.995Z,13.52
2023-05-20T13:38:27.467Z,18.50
2023-05-20T13:41:27.895Z,18.95
2023-05-20T13:44:25.543Z,13.63
2023-05-20T13:47:23.439Z,12.30
2023-05-20T13:50:21.417Z,15.13
2023-05-20T13:53:19.766Z,13.63
2023-05-20T13:56:17.644Z,12.98
2023-05-20T13:59:15.520Z,13.48
2023-05-20T14:02:13.337Z,12.13
2023-05-20T14:05:11.512Z,11.45
2023-05-20T14:08:09.351Z,12.00
2023-05-20T14:11:07.158Z,12.50
2023-05-20T14:14:04.935Z,11.85
2023-05-20T14:17:02.908Z,11.95
2023-05-20T14:20:01.209Z,11.45
2023-05-20T14:23:01.712Z,12.13
2023-05-20T14:25:59.432Z,12.18
2023-05-20T14:28:57.868Z,12.55
2023-05-20T14:31:55.628Z,13.80
2023-05-20T14:34:54.397Z,14.40
2023-05-20T14:37:53.812Z,13.93
2023-05-20T14:40:51.670Z,14.10
2023-05-20T14:43:50.400Z,14.82
2023-05-20T14:46:48.471Z,15.70
2023-05-20T14:49:47.504Z,13.52
2023-05-20T14:52:45.454Z,16.52
2023-05-20T14:55:43.770Z,15.23
2023-05-20T14:58:42.041Z,15.23
2023-05-20T15:01:39.796Z,16.65
2023-05-20T15:04:39.668Z,17.70
2023-05-20T15:07:39.362Z,16.85
2023-05-20T15:10:37.900Z,15.43
2023-05-20T15:13:36.044Z,13.23
2023-05-20T15:16:35.229Z,13.80
2023-05-20T15:19:33.841Z,13.02
2023-05-20T15:22:31.807Z,13.88
2023-05-20T15:25:30.494Z,12.07
2023-05-20T15:28:28.342Z,11.45
2023-05-20T15:31:26.549Z,11.57
2023-05-20T15:34:24.363Z,12.45
2023-05-20T15:37:22.479Z,12.63
2023-05-20T15:40:20.341Z,11.98
2023-05-20T15:43:18.946Z,12.32
2023-05-20T15:46:18.187Z,12.57
2023-05-20T15:49:16.487Z,12.68
2023-05-20T15:52:14.573Z,11.35
2023-05-20T15:55:12.559Z,10.98
2023-05-20T15:58:10.811Z,11.07
2023-05-20T16:01:09.772Z,10.30
2023-05-20T16:04:07.856Z,11.65
2023-05-20T16:07:06.266Z,11.90
2023-05-20T16:10:04.479Z,11.52
2023-05-20T16:13:02.659Z,11.32
2023-05-20T16:16:01.014Z,11.55
2023-05-20T16:18:59.817Z,12.20
2023-05-20T16:21:57.679Z,16.02
2023-05-20T16:24:55.672Z,21.23
2023-05-20T16:27:53.846Z,19.55
2023-05-20T16:30:51.584Z,18.33
2023-05-20T16:33:49.660Z,16.92
2023-05-20T16:36:47.459Z,14.40
2023-05-20T16:39:45.279Z,14.90
2023-05-20T16:42:44.588Z,14.93
2023-05-20T16:45:42.942Z,14.50
2023-05-20T16:48:40.803Z,15.95
2023-05-20T16:51:38.790Z,18.73
2023-05-20T16:54:36.710Z,17.75
2023-05-20T16:57:35.047Z,17.67
2023-05-20T17:00:33.072Z,16.75
2023-05-20T17:03:32.731Z,17.38
2023-05-20T17:06:34.832Z,15.60
2023-05-20T17:09:32.767Z,14.43
2023-05-20T17:12:30.548Z,13.15
2023-05-20T17:15:28.436Z,11.80
2023-05-20T17:18:26.242Z,12.20
2023-05-20T17:21:24.010Z,11.68
2023-05-20T17:24:21.843Z,10.05
2023-05-20T17:27:19.843Z,9.88
2023-05-20T17:30:17.684Z,8.73
2023-05-20T17:33:16.034Z,9.55
2023-05-20T17:36:14.370Z,8.65
2023-05-20T17:39:12.819Z,6.75
2023-05-20T17:42:10.532Z,6.00
2023-05-20T17:45:09.128Z,4.60
2023-05-20T17:48:10.110Z,4.40
2023-05-20T17:51:09.694Z,4.43
2023-05-20T17:54:07.435Z,3.50
2023-05-20T17:57:05.599Z,2.28
2023-05-20T18:00:04.033Z,1.65
2023-05-20T18:03:02.034Z,1.63
2023-05-20T18:06:00.117Z,1.70
2023-05-20T18:08:57.983Z,1.70
2023-05-20T18:11:55.882Z,1.50
2023-05-20T18:14:53.755Z,1.60
2023-05-20T18:17:51.608Z,1.58
2023-05-20T18:20:49.428Z,1.70
2023-05-20T18:23:47.482Z,1.60
2023-05-20T18:26:46.137Z,2.08
2023-05-20T18:29:43.895Z,2.38
2023-05-20T18:32:41.889Z,2.40
2023-05-20T18:35:39.690Z,2.28
2023-05-20T18:38:39.779Z,2.40
2023-05-20T18:41:46.628Z,2.47
2023-05-20T18:44:44.666Z,2.97
2023-05-20T18:47:42.677Z,2.70
2023-05-20T18:50:40.587Z,2.70
2023-05-20T18:53:38.340Z,3.10
2023-05-20T18:56:36.314Z,3.30
2023-05-20T18:59:34.407Z,3.30
2023-05-20T19:02:32.282Z,4.88
2023-05-20T19:05:33.581Z,5.10
2023-05-20T19:08:32.907Z,4.97
2023-05-20T19:11:30.979Z,4.88
2023-05-20T19:14:28.744Z,5.45
2023-05-20T19:17:26.601Z,5.35
2023-05-20T19:20:24.562Z,5.38
2023-05-20T19:23:22.357Z,5.50
2023-05-20T19:26:20.126Z,5.05
2023-05-20T19:29:17.828Z,4.60
2023-05-20T19:32:15.641Z,5.40
2023-05-20T19:35:13.426Z,4.30
2023-05-20T19:38:11.217Z,4.97
2023-05-20T19:41:10.883Z,4.72
2023-05-20T19:44:09.506Z,4.80
2023-05-20T19:47:07.389Z,5.35
2023-05-20T19:50:05.902Z,5.35
2023-05-20T19:53:06.739Z,5.32
2023-05-20T19:56:04.790Z,5.18
2023-05-20T19:59:02.553Z,5.10
2023-05-20T20:02:03.481Z,5.78
2023-05-20T20:05:01.562Z,5.38
2023-05-20T20:07:59.731Z,5.00
2023-05-20T20:10:57.435Z,5.85
2023-05-20T20:13:55.478Z,5.90
2023-05-20T20:16:54.255Z,5.07
2023-05-20T20:19:55.897Z,5.35
2023-05-20T20:22:53.727Z,5.18
2023-05-20T20:25:51.504Z,5.05
2023-05-20T20:28:49.404Z,5.15
2023-05-20T20:31:47.500Z,4.78
2023-05-20T20:34:46.281Z,4.80
2023-05-20T20:37:45.378Z,5.15
2023-05-20T20:40:43.334Z,5.00
2023-05-20T20:43:43.035Z,4.75
2023-05-20T20:46:42.211Z,4.50
2023-05-20T20:49:40.034Z,4.80
2023-05-20T20:52:39.211Z,5.20
2023-05-20T20:55:37.137Z,4.68
2023-05-20T20:58:35.943Z,4.68
2023-05-20T21:01:36.646Z,5.40
2023-05-20T21:04:34.494Z,5.32
2023-05-20T21:07:33.039Z,5.57
2023-05-20T21:10:31.657Z,4.68
2023-05-20T21:13:31.401Z,4.57
2023-05-20T21:16:29.154Z,4.70
2023-05-20T21:19:27.301Z,5.05
2023-05-20T21:22:25.139Z,4.57
2023-05-20T21:25:22.948Z,4.80
2023-05-20T21:28:20.825Z,4.95
2023-05-20T21:31:18.690Z,5.10
2023-05-20T21:34:16.506Z,4.80
2023-05-20T21:37:14.325Z,4.47
2023-05-20T21:40:12.489Z,4.50
2023-05-20T21:43:10.290Z,4.47
2023-05-20T21:46:08.290Z,4.57
2023-05-20T21:49:06.159Z,5.03
2023-05-20T21:52:03.865Z,5.25
2023-05-20T21:55:01.642Z,4.63
2023-05-20T21:57:59.416Z,4.60
2023-05-20T22:00:57.301Z,4.15
2023-05-20T22:03:56.559Z,4.28
2023-05-20T22:06:54.778Z,4.30
2023-05-20T22:09:52.474Z,4.03
2023-05-20T22:12:51.273Z,4.20
2023-05-20T22:15:49.060Z,4.47
2023-05-20T22:18:48.374Z,4.60
2023-05-20T22:21:50.537Z,4.93
2023-05-20T22:24:48.733Z,5.07
2023-05-20T22:27:46.545Z,5.43
2023-05-20T22:30:44.705Z,5.03
2023-05-20T22:33:42.772Z,5.20
2023-05-20T22:36:41.111Z,5.32
2023-05-20T22:39:39.355Z,5.00
2023-05-20T22:42:37.383Z,5.32
2023-05-20T22:45:35.418Z,4.63
2023-05-20T22:48:33.611Z,5.05
2023-05-20T22:51:34.688Z,4.95
2023-05-20T22:54:32.816Z,5.50
2023-05-20T22:57:30.512Z,5.47
2023-05-20T23:00:28.301Z,4.80
2023-05-20T23:03:26.109Z,5.18
2023-05-20T23:06:23.983Z,4.40
2023-05-20T23:09:21.926Z,4.80
2023-05-20T23:12:19.700Z,4.70
2023-05-20T23:15:17.498Z,4.88
2023-05-20T23:18:16.376Z,4.93
2023-05-20T23:21:14.827Z,4.78
2023-05-20T23:24:12.715Z,4.55
2023-05-20T23:27:10.424Z,5.47
2023-05-20T23:30:09.238Z,5.43
2023-05-20T23:33:07.049Z,5.03
2023-05-20T23:36:05.132Z,5.40
2023-05-20T23:39:03.808Z,4.88
2023-05-20T23:42:01.619Z,5.07
2023-05-20T23:44:59.303Z,5.63
2023-05-20T23:47:57.223Z,5.70
2023-05-20T23:50:55.025Z,5.38
2023-05-20T23:53:52.844Z,5.95
2023-05-20T23:56:50.654Z,4.97
2023-05-20T23:59:49.659Z,5.30
